Chris Hadfield Airport
CYZR : now visible

Airfield :











YOU CAN JOIN US ON...

 
LOGIN :

Register | Disclaimer

   EN    FR    IT 

 









Legend :    VFR   Marginal VFR   IFR   Intensive IFR   Very Intensive IFR
Visi :
Ceiling :
>= 8 km
>= 3000ft
5 to 8 km
1000 to 3000 ft
1500m to 5 km
500 to 1000 ft
800 to 1500m
200 to 500 ft
< 800m
< 200 ft
Symbols :   Thunderstorms  Fog  Heavy snow  Heavy precipitations  Wind > 20 kt






- Airport Elevation : 594 ft
- IATA code : YZR


CYZR - Chris Hadfield

CURRENT METAR :
  • 181112Z AUTO 15012G17KT 2SM -SN OVC014 M04/M05 A3015 RMK SLP220

EXPIRED METARs :
  • 181102Z AUTO 15013G20KT 1 3/4SM -SN OVC018 M04/M06 A3015 RMK VIS VRB 1 1/2-2 1/4 SLP221
  • 181055Z AUTO 16015G20KT 3SM -SN FEW013 OVC024 M04/M06 A3015 RMK SLP223
  • 181017Z AUTO 13015G21KT 9SM -SN SCT012 BKN044 OVC050 M05/M07 A3016 RMK PRESFR SLP226
  • 181000Z AUTO 14015G23KT 9SM -SN FEW014 SCT034 OVC046 M05/M07 A3020 RMK SLP239
  • 180950Z AUTO 13015G24KT 6SM -SN BKN030 OVC046 M05/M07 A3020 RMK SLP238
  • 180940Z AUTO 13016G23KT 3SM -SN FEW009 OVC026 M05/M07 A3020 RMK SLP240
  • 180905Z AUTO 13015G24KT 3SM -SN SCT010 OVC022 M05/M07 A3025 RMK PRESFR SLP255
  • 180859Z AUTO 13019G24KT 2 1/2SM -SN BKN010 OVC020 M05/M07 A3026 RMK PRESFR SLP259
  • 180835Z AUTO 13014G21KT 3SM -SN FEW010 BKN024 OVC040 M05/M07 A3029 RMK SLP270

TAF AMD TAF CYZR
Valid from the 18 at 11:00 until the 18 at 21:00 UTC


181133Z 1811/1821 15015G25KT 6SM -SN OVC015
TEMPO 1811/1812 11/2SM -SN
FM181200 15015G25KT 3/4SM -SN OVC008
TEMPO 1812/1818 2SM -SN OVC010
FM181800 18020G30KT 3/4SM -SN OVC006
TEMPO 1818/1820 2SM -RASN BR OVC010
FM182000 19020G30KT 2SM -RA BR OVC008 RMK FCST BASED ON AUTO OBS. NXT FCST BY 181400Z



MET'MAP, your aeronautical weather chart ! - Copyright ORBIFLY December 2007 - Disclaimer

ORBIFLY MET'MAP TEAM :

Programming & Development : Alexandra Zaïnal
Concept & original design : Baudouin d'Aumeries
Assistance for programming : Marc-Olivier Méhu
Technical & hardware support : Manuel Goepfert

Contact : metmap@orbifly.com




SOURCES & CREDITS :

   NOAA       Earth
Advisory